Time;durP1;ratioP1;P1;durP2;ratioP2;P2;SDS_P1;SDS_P2;PMS_P1;PMS_P2;Temp;Humidity;BMP_temperature;BMP_pressure;BME280_temperature;BME280_humidity;BME280_pressure;Samples;Min_cycle;Max_cycle;Signal;HPM_P1;HPM_P2
2021/12/23 00:01:23;;;;;;;22.77;14.10;;;-1.00;99.90;;;;;;5035834;28;20305;-83
2021/12/23 00:03:49;;;;;;;19.52;12.95;;;-1.00;99.90;;;;;;5003410;28;20153;-83
2021/12/23 00:06:15;;;;;;;21.58;14.20;;;-1.00;99.90;;;;;;4997560;28;20163;-83
2021/12/23 00:08:40;;;;;;;19.98;13.30;;;-0.90;99.90;;;;;;5014034;28;20049;-83
2021/12/23 00:11:06;;;;;;;20.95;13.50;;;-0.90;99.90;;;;;;5018131;28;20056;-83
2021/12/23 00:13:48;;;;;;;24.02;13.57;;;-0.90;99.90;;;;;;5003793;28;20041;-83
2021/12/23 00:16:18;;;;;;;21.33;14.80;;;-0.90;99.90;;;;;;5001237;28;20042;-82
2021/12/23 00:18:49;;;;;;;21.75;13.93;;;-0.90;99.90;;;;;;5003144;28;20375;-83
2021/12/23 00:24:01;;;;;;;21.48;14.38;;;-0.80;99.90;;;;;;5018141;28;20041;-83
2021/12/23 00:26:27;;;;;;;21.67;14.65;;;-0.80;99.90;;;;;;5036351;28;20042;-83
2021/12/23 00:28:53;;;;;;;25.02;13.70;;;-0.80;99.90;;;;;;5004403;28;20057;-83
2021/12/23 00:31:19;;;;;;;19.90;14.10;;;-0.80;99.90;;;;;;5002030;28;20143;-82
2021/12/23 00:33:45;;;;;;;20.35;14.70;;;-0.80;99.90;;;;;;5001264;28;20081;-83
2021/12/23 00:36:12;;;;;;;20.42;14.40;;;-0.70;99.90;;;;;;5003181;28;20041;-83
2021/12/23 00:38:45;;;;;;;21.60;14.23;;;-0.80;99.90;;;;;;5014857;28;20049;-83
2021/12/23 00:41:11;;;;;;;22.48;14.27;;;-0.70;99.90;;;;;;5017929;28;20142;-83
2021/12/23 00:43:38;;;;;;;24.45;14.68;;;-0.70;99.90;;;;;;5016096;28;20513;-83
2021/12/23 00:46:04;;;;;;;26.35;15.10;;;-0.70;99.90;;;;;;5035258;28;20076;-83
2021/12/23 00:48:30;;;;;;;25.17;15.43;;;-0.70;99.90;;;;;;5000646;28;20125;-83
2021/12/23 00:50:57;;;;;;;23.25;14.82;;;-0.70;99.90;;;;;;5018364;28;20121;-83
2021/12/23 00:53:23;;;;;;;20.27;13.63;;;-0.60;99.90;;;;;;5009376;28;20545;-83
2021/12/23 00:55:52;;;;;;;22.65;15.07;;;-0.70;99.90;;;;;;5029204;28;20095;-82
2021/12/23 00:58:20;;;;;;;24.42;15.73;;;-0.60;99.90;;;;;;5022183;28;20352;-83
2021/12/23 01:00:48;;;;;;;23.95;14.40;;;-0.60;99.90;;;;;;5000656;28;20220;-83
2021/12/23 01:03:14;;;;;;;22.83;14.55;;;-0.60;99.90;;;;;;5015568;28;20042;-83
2021/12/23 01:05:40;;;;;;;21.17;14.38;;;-0.50;99.90;;;;;;5000605;28;20045;-83
2021/12/23 01:08:06;;;;;;;22.83;14.30;;;-0.50;99.90;;;;;;4999709;28;20515;-83
2021/12/23 01:10:34;;;;;;;23.50;14.48;;;-0.50;99.90;;;;;;5000888;28;20116;-83
2021/12/23 01:13:02;;;;;;;24.23;14.70;;;-0.50;99.90;;;;;;5000596;28;20171;-83
2021/12/23 01:18:20;;;;;;;23.42;14.65;;;-0.40;99.90;;;;;;5014596;28;20056;-83
2021/12/23 01:21:03;;;;;;;21.88;14.10;;;-0.40;99.90;;;;;;5015494;28;20449;-83
2021/12/23 01:23:29;;;;;;;23.13;15.32;;;-0.40;99.90;;;;;;5012245;28;20515;-83
2021/12/23 01:25:55;;;;;;;22.98;14.73;;;-0.40;99.90;;;;;;4999200;28;20037;-82
2021/12/23 01:28:21;;;;;;;24.45;15.02;;;-0.30;99.90;;;;;;5013589;28;20037;-83
2021/12/23 01:30:47;;;;;;;23.88;14.60;;;-0.40;99.90;;;;;;4999145;28;20061;-83
2021/12/23 01:33:13;;;;;;;25.15;14.63;;;-0.40;99.90;;;;;;5031610;28;20076;-83
2021/12/23 01:35:41;;;;;;;24.65;15.55;;;-0.30;99.90;;;;;;5001057;28;20326;-83
2021/12/23 01:38:10;;;;;;;23.85;14.98;;;-0.30;99.90;;;;;;5011287;28;20203;-83
2021/12/23 01:40:36;;;;;;;21.88;14.85;;;-0.30;99.90;;;;;;5001552;28;20123;-83
2021/12/23 01:43:04;;;;;;;24.05;15.95;;;-0.30;99.90;;;;;;5013772;28;20434;-83
2021/12/23 01:45:33;;;;;;;22.60;15.65;;;-0.20;99.90;;;;;;5002044;28;20119;-83
2021/12/23 01:48:03;;;;;;;22.42;15.65;;;-0.20;99.90;;;;;;5001306;28;20445;-83
2021/12/23 01:50:30;;;;;;;22.45;15.07;;;-0.20;99.90;;;;;;5015322;28;20043;-83
2021/12/23 01:52:59;;;;;;;23.77;15.77;;;-0.20;99.90;;;;;;4997396;28;20065;-83
2021/12/23 01:55:26;;;;;;;24.38;15.55;;;-0.20;99.90;;;;;;4997908;28;20183;-84
2021/12/23 01:57:52;;;;;;;24.90;16.30;;;-0.20;99.90;;;;;;5005661;28;20112;-82
2021/12/23 02:00:21;;;;;;;23.17;15.63;;;-0.30;99.90;;;;;;5013108;28;20034;-83
2021/12/23 02:02:47;;;;;;;22.20;14.98;;;-0.30;99.90;;;;;;5015679;28;20033;-83
2021/12/23 02:05:12;;;;;;;25.75;17.25;;;-0.30;99.90;;;;;;5031576;28;20053;-83
2021/12/23 02:07:38;;;;;;;26.33;15.77;;;-0.20;99.90;;;;;;4997527;28;20120;-83
2021/12/23 02:10:07;;;;;;;22.42;14.85;;;-0.30;99.90;;;;;;5029336;28;20433;-83
2021/12/23 02:12:33;;;;;;;23.77;15.43;;;-0.30;99.90;;;;;;4996273;28;20068;-83
2021/12/23 02:14:58;;;;;;;24.58;15.90;;;-0.30;99.90;;;;;;5015465;28;20121;-83
2021/12/23 02:17:24;;;;;;;26.20;16.25;;;-0.30;99.90;;;;;;5016351;28;20458;-83
2021/12/23 02:19:54;;;;;;;25.08;15.80;;;-0.30;99.90;;;;;;4999233;28;20501;-84
2021/12/23 02:22:20;;;;;;;27.73;16.40;;;-0.30;99.90;;;;;;4995076;28;20732;-82
2021/12/23 02:24:45;;;;;;;28.08;16.40;;;-0.30;99.90;;;;;;5002640;28;20120;-83
2021/12/23 02:27:11;;;;;;;23.02;15.55;;;-0.30;99.90;;;;;;4995857;28;20060;-83
2021/12/23 02:29:37;;;;;;;26.15;15.95;;;-0.30;99.90;;;;;;4999370;28;20040;-83
2021/12/23 02:32:05;;;;;;;28.08;16.73;;;-0.30;99.90;;;;;;4999577;28;20160;-82
2021/12/23 02:34:31;;;;;;;22.95;15.25;;;-0.30;99.90;;;;;;5013394;28;20279;-82
2021/12/23 02:36:58;;;;;;;22.38;15.70;;;-0.30;99.90;;;;;;5013853;28;20640;-82
2021/12/23 02:39:26;;;;;;;23.25;16.15;;;-0.30;99.90;;;;;;5014932;28;20034;-83
2021/12/23 02:41:55;;;;;;;23.65;16.42;;;-0.30;99.90;;;;;;5014033;28;20057;-83
2021/12/23 02:44:23;;;;;;;25.58;15.55;;;-0.30;99.90;;;;;;4999214;28;20029;-82
2021/12/23 02:46:48;;;;;;;23.92;15.45;;;-0.30;99.90;;;;;;4998614;28;20124;-82
2021/12/23 02:49:15;;;;;;;24.75;16.17;;;-0.30;99.90;;;;;;4998213;28;20454;-83
2021/12/23 02:51:41;;;;;;;27.23;15.70;;;-0.30;99.90;;;;;;4995397;28;20295;-83
2021/12/23 02:54:10;;;;;;;25.83;16.88;;;-0.30;99.90;;;;;;5015025;28;20513;-83
2021/12/23 02:56:36;;;;;;;25.60;16.05;;;-0.30;99.90;;;;;;5012689;28;20067;-83
2021/12/23 02:59:02;;;;;;;29.23;16.85;;;-0.30;99.90;;;;;;5007399;28;20571;-82
2021/12/23 03:01:28;;;;;;;25.00;16.73;;;-0.20;99.90;;;;;;4997080;28;20099;-83
2021/12/23 03:03:54;;;;;;;27.13;16.90;;;-0.30;99.90;;;;;;5032238;28;20041;-82
2021/12/23 03:06:22;;;;;;;24.45;15.77;;;-0.20;99.90;;;;;;4994704;28;20276;-83
2021/12/23 03:08:53;;;;;;;26.73;16.63;;;-0.20;99.90;;;;;;4998971;28;20440;-83
2021/12/23 03:11:22;;;;;;;26.55;16.60;;;-0.20;99.90;;;;;;5005155;28;20499;-83
2021/12/23 03:13:48;;;;;;;26.17;16.38;;;-0.20;99.90;;;;;;5015699;28;20540;-82
2021/12/23 03:16:19;;;;;;;24.83;16.17;;;-0.20;99.90;;;;;;5002344;28;20073;-82
2021/12/23 03:18:44;;;;;;;24.00;15.82;;;-0.10;99.90;;;;;;5019574;28;20388;-83
2021/12/23 03:21:10;;;;;;;25.83;16.35;;;-0.20;99.90;;;;;;4995717;28;20140;-83
2021/12/23 03:23:37;;;;;;;24.85;16.50;;;-0.20;99.90;;;;;;4999677;28;20073;-83
2021/12/23 03:26:03;;;;;;;28.02;16.45;;;-0.10;99.90;;;;;;5018887;28;20041;-83
2021/12/23 03:28:30;;;;;;;24.58;16.45;;;-0.10;99.90;;;;;;5016251;28;20049;-83
2021/12/23 03:30:59;;;;;;;26.10;16.38;;;-0.10;99.90;;;;;;5018481;28;20452;-83
2021/12/23 03:33:26;;;;;;;25.00;15.80;;;-0.10;99.90;;;;;;5004250;28;20049;-83
2021/12/23 03:35:51;;;;;;;25.45;16.23;;;-0.10;99.90;;;;;;4995530;28;20125;-83
2021/12/23 03:38:18;;;;;;;28.33;17.20;;;-0.10;99.90;;;;;;5004022;28;20129;-83
2021/12/23 03:40:44;;;;;;;29.15;16.40;;;-0.10;99.90;;;;;;5001539;28;20037;-82
2021/12/23 03:43:11;;;;;;;26.13;16.23;;;-0.10;99.90;;;;;;5015664;28;20075;-83
2021/12/23 03:45:50;;;;;;;25.65;16.35;;;-0.10;99.90;;;;;;5019275;28;20068;-83
2021/12/23 03:48:17;;;;;;;27.25;16.70;;;-0.10;99.90;;;;;;5002022;28;20046;-83
2021/12/23 03:50:45;;;;;;;27.60;17.00;;;-0.10;99.90;;;;;;5035016;28;20049;-83
2021/12/23 03:53:12;;;;;;;23.55;15.43;;;-0.10;99.90;;;;;;4996920;28;20117;-83
2021/12/23 03:55:38;;;;;;;25.83;16.90;;;-0.10;99.90;;;;;;5003780;28;20121;-82
2021/12/23 03:58:04;;;;;;;26.63;15.93;;;-0.10;99.90;;;;;;5002365;28;20132;-83
2021/12/23 04:00:30;;;;;;;27.30;16.42;;;-0.10;99.90;;;;;;5003923;28;20050;-82
2021/12/23 04:02:58;;;;;;;24.25;15.90;;;-0.10;99.90;;;;;;5019768;28;20484;-83
2021/12/23 04:05:25;;;;;;;28.98;17.17;;;-0.10;99.90;;;;;;5015595;28;20445;-82
2021/12/23 04:07:51;;;;;;;25.45;16.15;;;-0.10;99.90;;;;;;5000237;28;20060;-83
2021/12/23 04:10:20;;;;;;;25.70;16.45;;;0.00;99.90;;;;;;5035794;28;20511;-82
2021/12/23 04:12:47;;;;;;;26.80;16.23;;;-0.10;99.90;;;;;;5017593;28;20041;-82
2021/12/23 04:15:15;;;;;;;25.83;15.63;;;-0.10;99.90;;;;;;5033713;28;20046;-83
2021/12/23 04:17:41;;;;;;;28.63;16.15;;;-0.10;99.90;;;;;;5034971;28;20143;-82
2021/12/23 04:20:20;;;;;;;24.58;16.85;;;-0.10;99.90;;;;;;5016830;28;20116;-83
2021/12/23 04:22:48;;;;;;;23.75;15.32;;;0.00;99.90;;;;;;5012278;28;20033;-83
2021/12/23 04:25:15;;;;;;;27.85;16.42;;;0.00;99.90;;;;;;5034489;28;20045;-83
2021/12/23 04:27:43;;;;;;;24.13;16.05;;;0.00;99.90;;;;;;5015348;28;20037;-83
2021/12/23 04:30:11;;;;;;;25.13;15.75;;;0.00;99.90;;;;;;5004237;28;20141;-83
2021/12/23 04:32:36;;;;;;;26.35;16.45;;;0.00;99.90;;;;;;5019263;28;20099;-82
2021/12/23 04:35:03;;;;;;;25.05;16.15;;;0.00;99.90;;;;;;4997282;28;20049;-83
2021/12/23 04:37:29;;;;;;;24.08;15.75;;;0.00;99.90;;;;;;4999221;28;20478;-82
2021/12/23 04:39:54;;;;;;;25.60;16.80;;;0.00;99.90;;;;;;5001370;28;20081;-83
2021/12/23 04:42:20;;;;;;;23.38;16.67;;;0.00;99.90;;;;;;5017440;28;20395;-82
2021/12/23 04:44:46;;;;;;;23.90;16.27;;;0.00;99.90;;;;;;5004436;28;20540;-82
2021/12/23 04:47:15;;;;;;;23.33;15.73;;;0.00;99.90;;;;;;5019056;28;20048;-83
2021/12/23 04:49:40;;;;;;;28.08;15.90;;;0.00;99.90;;;;;;5020807;28;20464;-83
2021/12/23 04:52:06;;;;;;;23.85;16.13;;;0.00;99.90;;;;;;5015973;28;20068;-82
2021/12/23 04:54:32;;;;;;;24.83;16.23;;;0.00;99.90;;;;;;5002084;28;20030;-83
2021/12/23 04:56:58;;;;;;;23.63;17.08;;;0.10;99.90;;;;;;5000410;28;20124;-83
2021/12/23 04:59:23;;;;;;;28.05;17.52;;;0.10;99.90;;;;;;5032595;28;20053;-82
2021/12/23 05:01:50;;;;;;;24.83;16.50;;;0.10;99.90;;;;;;5017052;28;20099;-82
2021/12/23 05:04:19;;;;;;;26.27;15.95;;;0.10;99.90;;;;;;5001635;28;20045;-82
2021/12/23 05:06:44;;;;;;;27.58;16.08;;;0.10;99.90;;;;;;5032086;28;20571;-82
2021/12/23 05:09:10;;;;;;;23.73;14.98;;;0.10;99.90;;;;;;5015145;28;20116;-83
2021/12/23 05:11:35;;;;;;;26.48;16.42;;;0.10;99.90;;;;;;5032807;28;20040;-83
2021/12/23 05:14:01;;;;;;;23.20;15.25;;;0.10;99.90;;;;;;5002416;28;20478;-82
2021/12/23 05:16:27;;;;;;;24.95;15.55;;;0.10;99.90;;;;;;5034329;28;20048;-82
2021/12/23 05:18:52;;;;;;;24.48;16.33;;;0.20;99.90;;;;;;5032347;28;20040;-82
2021/12/23 05:21:18;;;;;;;24.20;15.55;;;0.20;99.90;;;;;;5011044;28;20041;-82
2021/12/23 05:23:47;;;;;;;24.05;15.57;;;0.20;99.90;;;;;;5032351;28;20041;-82
2021/12/23 05:26:13;;;;;;;23.77;15.65;;;0.20;99.90;;;;;;5015783;28;20060;-82
2021/12/23 05:28:38;;;;;;;23.50;15.50;;;0.20;99.90;;;;;;5001442;28;20033;-82
2021/12/23 05:31:05;;;;;;;25.80;16.88;;;0.20;99.90;;;;;;5001436;28;20129;-82
2021/12/23 05:33:31;;;;;;;23.13;15.43;;;0.20;99.90;;;;;;5001157;28;20041;-82
2021/12/23 05:35:57;;;;;;;24.75;15.95;;;0.20;99.90;;;;;;4997693;28;20382;-82
2021/12/23 05:38:26;;;;;;;25.58;16.55;;;0.20;99.90;;;;;;4998040;28;20433;-82
2021/12/23 05:40:52;;;;;;;26.23;16.40;;;0.20;99.90;;;;;;5014410;28;20070;-82
2021/12/23 05:43:18;;;;;;;24.67;16.98;;;0.30;99.90;;;;;;5016574;28;20167;-83
2021/12/23 05:45:43;;;;;;;27.27;16.65;;;0.30;99.90;;;;;;5000168;28;20043;-83
2021/12/23 05:48:09;;;;;;;26.48;16.80;;;0.20;99.90;;;;;;5001179;28;20037;-82
2021/12/23 05:50:36;;;;;;;25.92;16.50;;;0.30;99.90;;;;;;4998453;28;20049;-82
2021/12/23 05:53:01;;;;;;;28.92;17.23;;;0.30;99.90;;;;;;5012892;28;20112;-82
2021/12/23 05:55:27;;;;;;;27.08;16.73;;;0.30;99.90;;;;;;4999551;28;20499;-82
2021/12/23 05:57:54;;;;;;;26.55;17.17;;;0.30;99.90;;;;;;5000712;28;20508;-83
2021/12/23 06:00:24;;;;;;;26.58;16.63;;;0.30;99.90;;;;;;4990399;28;20120;-82
2021/12/23 06:02:50;;;;;;;24.30;15.38;;;0.30;99.90;;;;;;5023150;28;20674;-82
2021/12/23 06:05:17;;;;;;;25.83;16.52;;;0.30;99.90;;;;;;5016952;28;20053;-82
2021/12/23 06:07:43;;;;;;;25.42;16.45;;;0.30;99.90;;;;;;5012425;28;20559;-82
2021/12/23 06:10:09;;;;;;;25.00;16.05;;;0.30;99.90;;;;;;5017124;28;20037;-82
2021/12/23 06:12:35;;;;;;;22.83;15.55;;;0.30;99.90;;;;;;5000648;28;20096;-82
2021/12/23 06:15:02;;;;;;;31.25;16.10;;;0.30;99.90;;;;;;5017721;28;20041;-82
2021/12/23 06:17:27;;;;;;;23.23;15.32;;;0.30;99.90;;;;;;5014696;28;20037;-82
2021/12/23 06:19:53;;;;;;;29.23;16.13;;;0.30;99.90;;;;;;5032331;28;20472;-83
2021/12/23 06:22:19;;;;;;;23.17;16.08;;;0.40;99.90;;;;;;5031052;28;20107;-82
2021/12/23 06:24:47;;;;;;;24.42;15.05;;;0.40;99.90;;;;;;5017629;28;20458;-82
2021/12/23 06:27:17;;;;;;;28.38;16.80;;;0.30;99.90;;;;;;5027954;28;20057;-82
2021/12/23 06:29:43;;;;;;;27.10;17.58;;;0.40;99.90;;;;;;5016082;28;20061;-82
2021/12/23 06:32:09;;;;;;;26.05;16.55;;;0.40;99.90;;;;;;5000143;28;20033;-82
2021/12/23 06:34:35;;;;;;;25.65;16.80;;;0.40;99.90;;;;;;4997859;28;20041;-82
2021/12/23 06:37:04;;;;;;;24.83;16.83;;;0.40;99.90;;;;;;5011626;28;20117;-83
2021/12/23 06:39:33;;;;;;;25.27;17.52;;;0.40;99.90;;;;;;5005913;28;20215;-82
2021/12/23 06:42:02;;;;;;;25.80;16.85;;;0.40;99.90;;;;;;5001426;28;20572;-82
2021/12/23 06:44:28;;;;;;;25.67;16.73;;;0.40;99.90;;;;;;5017983;28;20030;-82
2021/12/23 06:46:53;;;;;;;25.80;16.25;;;0.40;99.90;;;;;;5018226;28;20065;-82
2021/12/23 06:49:20;;;;;;;27.50;17.42;;;0.40;99.90;;;;;;5036836;28;20048;-82
2021/12/23 06:51:45;;;;;;;26.35;17.27;;;0.50;99.90;;;;;;5003103;28;20037;-82
2021/12/23 06:54:16;;;;;;;27.17;17.92;;;0.50;99.90;;;;;;5004195;28;20045;-82
2021/12/23 06:56:42;;;;;;;28.42;18.17;;;0.50;99.90;;;;;;5003643;28;20044;-82
2021/12/23 06:59:08;;;;;;;29.13;18.40;;;0.50;99.90;;;;;;5036008;28;20055;-82
2021/12/23 07:01:34;;;;;;;27.55;17.58;;;0.50;99.90;;;;;;5034213;28;20037;-82
2021/12/23 07:06:26;;;;;;;28.58;17.30;;;0.60;99.90;;;;;;5010576;28;20492;-82
2021/12/23 07:08:54;;;;;;;27.60;18.20;;;0.60;99.90;;;;;;4999450;28;20112;-82
2021/12/23 07:11:20;;;;;;;27.45;17.70;;;0.60;99.90;;;;;;5016142;28;20104;-83
2021/12/23 07:13:46;;;;;;;30.88;18.75;;;0.60;99.90;;;;;;5005000;28;20052;-82
2021/12/23 07:16:19;;;;;;;32.00;18.70;;;0.60;99.90;;;;;;5019689;28;20040;-82
2021/12/23 07:18:45;;;;;;;31.83;19.30;;;0.60;99.90;;;;;;5004162;28;20071;-82
2021/12/23 07:21:12;;;;;;;31.58;19.20;;;0.60;99.90;;;;;;5011196;28;20619;-83
2021/12/23 07:23:44;;;;;;;26.65;18.35;;;0.60;99.90;;;;;;5018513;28;20052;-82
2021/12/23 07:26:12;;;;;;;33.53;20.27;;;0.50;99.90;;;;;;5018502;28;20048;-83
2021/12/23 07:28:41;;;;;;;31.30;19.27;;;0.60;99.90;;;;;;5037595;28;20544;-83
2021/12/23 07:31:07;;;;;;;30.83;18.75;;;0.50;99.90;;;;;;5018739;28;20038;-81
2021/12/23 07:33:34;;;;;;;31.83;19.63;;;0.50;99.90;;;;;;5004591;28;20404;-82
2021/12/23 07:36:04;;;;;;;32.10;19.70;;;0.50;99.90;;;;;;5002748;28;20221;-83
2021/12/23 07:38:32;;;;;;;31.88;19.60;;;0.50;99.90;;;;;;5001744;28;20044;-82
2021/12/23 07:40:58;;;;;;;29.58;19.20;;;0.50;99.90;;;;;;5018795;28;20496;-82
2021/12/23 07:46:02;;;;;;;29.85;17.80;;;0.50;99.90;;;;;;5034153;28;20037;-82
2021/12/23 07:48:28;;;;;;;29.38;19.77;;;0.40;99.90;;;;;;5018131;28;20073;-82
2021/12/23 07:50:57;;;;;;;33.95;20.13;;;0.50;99.90;;;;;;5014328;28;20453;-83
2021/12/23 07:53:23;;;;;;;31.67;19.25;;;0.40;99.90;;;;;;5028843;28;20561;-83
2021/12/23 07:55:49;;;;;;;30.67;19.63;;;0.40;99.90;;;;;;5013322;28;20737;-82
2021/12/23 07:58:15;;;;;;;32.50;20.50;;;0.40;99.90;;;;;;5017331;28;20128;-83
2021/12/23 08:00:41;;;;;;;30.80;19.65;;;0.40;99.90;;;;;;5009419;28;20042;-83
2021/12/23 08:03:09;;;;;;;32.55;20.85;;;0.40;99.90;;;;;;5016036;28;20037;-83
2021/12/23 08:05:35;;;;;;;30.40;19.63;;;0.40;99.90;;;;;;4996448;28;20228;-82
2021/12/23 08:08:02;;;;;;;33.05;20.02;;;0.40;99.90;;;;;;5000200;28;20153;-82
2021/12/23 08:10:28;;;;;;;34.13;19.90;;;0.50;99.90;;;;;;5002868;28;20107;-82
2021/12/23 08:12:54;;;;;;;32.30;20.75;;;0.50;99.90;;;;;;5016045;28;20037;-82
2021/12/23 08:15:20;;;;;;;36.10;20.95;;;0.50;99.90;;;;;;5003940;28;20099;-83
2021/12/23 08:17:46;;;;;;;34.08;20.77;;;0.50;99.90;;;;;;5003177;28;20056;-83
2021/12/23 08:20:13;;;;;;;36.17;20.95;;;0.50;99.90;;;;;;5003254;28;20038;-83
2021/12/23 08:22:42;;;;;;;32.47;20.20;;;0.50;99.90;;;;;;5000987;28;20526;-83
2021/12/23 08:25:10;;;;;;;33.13;21.02;;;0.50;99.90;;;;;;5004899;28;20599;-82
2021/12/23 08:27:36;;;;;;;34.47;21.23;;;0.50;99.90;;;;;;5017636;28;20048;-82
2021/12/23 08:30:06;;;;;;;33.17;20.42;;;0.50;99.90;;;;;;5001101;28;20376;-82
2021/12/23 08:32:32;;;;;;;37.05;21.58;;;0.50;99.90;;;;;;5019725;28;20029;-82
2021/12/23 08:34:58;;;;;;;33.10;21.73;;;0.50;99.90;;;;;;5003799;28;20052;-82
2021/12/23 08:37:23;;;;;;;32.05;19.90;;;0.50;99.90;;;;;;4998260;28;20559;-83
2021/12/23 08:39:50;;;;;;;33.25;20.60;;;0.50;99.90;;;;;;5015801;28;20113;-82
2021/12/23 08:42:17;;;;;;;32.90;20.25;;;0.50;99.90;;;;;;5004131;28;20048;-83
2021/12/23 08:44:42;;;;;;;36.05;21.00;;;0.50;99.90;;;;;;5018970;28;20044;-83
2021/12/23 08:47:09;;;;;;;33.47;21.77;;;0.40;99.90;;;;;;5003618;28;20037;-82
2021/12/23 08:49:35;;;;;;;35.08;22.13;;;0.40;99.90;;;;;;5002161;28;20367;-82
2021/12/23 08:52:04;;;;;;;35.97;21.33;;;0.50;99.90;;;;;;5017169;28;20072;-83
2021/12/23 08:54:29;;;;;;;36.35;23.10;;;0.50;99.90;;;;;;5018472;28;20053;-82
2021/12/23 08:56:55;;;;;;;34.90;21.30;;;0.50;99.90;;;;;;5002619;28;20048;-83
2021/12/23 08:59:21;;;;;;;41.92;22.45;;;0.50;99.90;;;;;;5002379;28;20176;-83
2021/12/23 09:01:46;;;;;;;36.92;21.95;;;0.50;99.90;;;;;;5018672;28;20327;-82
2021/12/23 09:04:13;;;;;;;34.22;21.33;;;0.60;99.90;;;;;;5006911;28;20405;-82
2021/12/23 09:06:38;;;;;;;35.92;21.55;;;0.60;99.90;;;;;;4999285;28;20123;-82
2021/12/23 09:09:08;;;;;;;34.60;21.23;;;0.50;99.90;;;;;;5005900;28;20628;-82
2021/12/23 09:11:34;;;;;;;36.60;22.00;;;0.50;99.90;;;;;;5021446;28;20454;-82
2021/12/23 09:14:00;;;;;;;39.38;22.98;;;0.60;99.90;;;;;;5038250;28;20049;-82
2021/12/23 09:16:26;;;;;;;34.80;21.60;;;0.60;99.90;;;;;;5000559;28;20323;-82
2021/12/23 09:18:52;;;;;;;35.97;21.00;;;0.60;99.90;;;;;;5004642;28;20278;-82
2021/12/23 09:21:18;;;;;;;39.83;22.83;;;0.60;99.90;;;;;;5015378;28;20124;-82
2021/12/23 09:23:44;;;;;;;40.03;22.80;;;0.60;99.90;;;;;;5014220;28;20469;-82
2021/12/23 09:26:10;;;;;;;38.00;22.98;;;0.60;99.90;;;;;;4997835;28;20133;-83
2021/12/23 09:28:54;;;;;;;38.58;23.73;;;0.60;99.90;;;;;;5013544;28;20844;-82
2021/12/23 09:34:05;;;;;;;38.78;23.13;;;0.70;99.90;;;;;;5018293;28;20084;-82
2021/12/23 09:36:31;;;;;;;39.50;23.70;;;0.70;99.90;;;;;;5010763;28;20152;-82
2021/12/23 09:38:57;;;;;;;40.80;25.05;;;0.70;99.90;;;;;;5002554;28;20064;-82
2021/12/23 09:41:23;;;;;;;42.58;24.67;;;0.70;99.90;;;;;;5002812;28;20404;-83
2021/12/23 09:43:50;;;;;;;44.22;25.75;;;0.70;99.90;;;;;;5016307;28;20461;-83
2021/12/23 09:46:20;;;;;;;47.67;25.05;;;0.70;99.90;;;;;;5003205;28;20067;-82
2021/12/23 09:48:47;;;;;;;47.28;25.80;;;0.70;99.90;;;;;;5009193;28;20550;-83
2021/12/23 09:51:17;;;;;;;46.83;26.23;;;0.80;99.90;;;;;;5004006;28;20067;-82
2021/12/23 09:53:44;;;;;;;45.22;26.35;;;0.80;99.90;;;;;;5018932;28;20535;-83
2021/12/23 09:56:10;;;;;;;44.92;26.45;;;0.80;99.90;;;;;;5000058;28;20277;-83
2021/12/23 09:58:36;;;;;;;46.35;26.45;;;0.90;99.90;;;;;;5003650;28;20140;-82
2021/12/23 10:01:04;;;;;;;48.42;27.48;;;0.90;99.90;;;;;;5016916;28;20518;-82
2021/12/23 10:03:31;;;;;;;47.50;26.95;;;0.90;99.90;;;;;;5018274;28;20037;-82
2021/12/23 10:05:59;;;;;;;54.13;28.85;;;1.00;99.90;;;;;;5003735;28;20200;-82
2021/12/23 10:08:29;;;;;;;54.25;28.08;;;1.00;99.90;;;;;;5015701;28;20305;-82
2021/12/23 10:29:28;;;;;;;52.20;29.75;;;1.10;99.90;;;;;;5020762;28;20044;-82
2021/12/23 10:30:50;;;;;;;55.55;29.63;;;1.10;99.90;;;;;;5020091;28;20103;-82
2021/12/23 10:38:44;;;;;;;58.30;31.13;;;1.10;99.90;;;;;;5031299;28;20072;-82
2021/12/23 10:41:14;;;;;;;60.08;30.60;;;1.00;99.90;;;;;;5023128;28;20186;-82
2021/12/23 10:43:53;;;;;;;58.40;30.58;;;1.20;99.90;;;;;;5021164;28;20046;-83
2021/12/23 10:46:27;;;;;;;55.83;29.75;;;1.10;99.90;;;;;;5031818;28;20531;-82
2021/12/23 10:49:28;;;;;;;56.33;31.45;;;1.20;99.90;;;;;;5008184;28;20284;-82
2021/12/23 10:52:32;;;;;;;58.40;31.25;;;1.20;99.90;;;;;;5018886;28;20208;-82
2021/12/23 11:00:16;;;;;;;63.05;31.92;;;1.20;99.90;;;;;;5013533;28;20133;-82
2021/12/23 11:03:09;;;;;;;60.60;30.85;;;1.20;99.90;;;;;;5006810;28;20231;-83
2021/12/23 11:05:44;;;;;;;61.78;31.67;;;1.20;99.90;;;;;;5015562;28;20041;-82
2021/12/23 11:38:28;;;;;;;64.60;32.20;;;1.30;99.90;;;;;;5037109;28;20045;-82
2021/12/23 11:40:58;;;;;;;68.35;33.53;;;1.40;99.90;;;;;;5005837;28;20131;-82
2021/12/23 11:43:30;;;;;;;62.05;31.17;;;1.40;99.90;;;;;;5004515;28;20046;-82
2021/12/23 11:45:57;;;;;;;65.50;32.70;;;1.40;99.90;;;;;;5020428;28;20136;-82
2021/12/23 11:48:23;;;;;;;67.88;34.72;;;1.40;99.90;;;;;;4999770;28;20120;-82
2021/12/23 11:51:05;;;;;;;75.22;36.47;;;1.40;99.90;;;;;;5014918;28;20191;-82
2021/12/23 11:53:34;;;;;;;65.88;31.70;;;1.40;99.90;;;;;;5019130;28;20056;-82
2021/12/23 11:56:03;;;;;;;68.57;34.47;;;1.40;99.90;;;;;;5021581;28;20118;-82
2021/12/23 11:58:29;;;;;;;62.50;31.73;;;1.40;99.90;;;;;;5020418;28;20453;-82
2021/12/23 12:01:14;;;;;;;63.05;31.73;;;1.40;99.90;;;;;;5021792;28;20371;-82
2021/12/23 12:04:04;;;;;;;70.78;34.30;;;1.40;99.90;;;;;;5018421;28;20571;-82
2021/12/23 12:06:35;;;;;;;63.30;33.13;;;1.50;99.90;;;;;;5018715;28;20053;-83
2021/12/23 12:09:14;;;;;;;71.75;34.70;;;1.50;99.90;;;;;;5035791;28;20107;-82
2021/12/23 12:11:40;;;;;;;67.70;33.88;;;1.50;99.90;;;;;;5032824;28;20481;-82
2021/12/23 12:14:41;;;;;;;59.33;31.20;;;1.50;99.90;;;;;;5004029;28;20040;-83
2021/12/23 12:17:25;;;;;;;63.67;31.98;;;1.50;99.90;;;;;;5009093;28;20049;-83
2021/12/23 12:19:59;;;;;;;59.27;31.43;;;1.50;99.90;;;;;;5017088;28;20148;-83
2021/12/23 12:22:50;;;;;;;63.75;32.53;;;1.60;99.90;;;;;;5019775;28;20418;-83
2021/12/23 12:25:24;;;;;;;68.97;33.25;;;1.60;99.90;;;;;;5036656;28;20049;-82
2021/12/23 12:27:56;;;;;;;70.68;33.65;;;1.60;99.90;;;;;;5003837;28;20072;-83
2021/12/23 12:30:46;;;;;;;63.97;31.10;;;1.70;99.90;;;;;;5020355;28;20041;-83
2021/12/23 12:33:18;;;;;;;65.45;33.40;;;1.70;99.90;;;;;;5018509;28;20041;-83
2021/12/23 12:36:04;;;;;;;65.00;32.20;;;1.60;99.90;;;;;;5004477;28;20340;-83
2021/12/23 12:38:37;;;;;;;63.75;33.13;;;1.60;99.90;;;;;;5019158;28;20168;-83
2021/12/23 12:41:18;;;;;;;74.13;34.53;;;1.60;99.90;;;;;;5019809;28;20113;-83
2021/12/23 12:43:49;;;;;;;64.90;32.28;;;1.60;99.90;;;;;;5030226;28;20026;-83
2021/12/23 12:46:52;;;;;;;72.00;33.55;;;1.70;99.90;;;;;;5035079;28;20037;-83
2021/12/23 12:49:31;;;;;;;76.35;35.10;;;1.70;99.90;;;;;;5030189;28;20042;-83
2021/12/23 12:52:18;;;;;;;69.70;33.10;;;1.60;99.90;;;;;;5000588;28;20410;-83
2021/12/23 12:55:07;;;;;;;70.22;34.55;;;1.70;99.90;;;;;;5018799;28;20048;-82
2021/12/23 12:57:39;;;;;;;70.57;34.35;;;1.80;99.90;;;;;;5000813;28;20103;-83
2021/12/23 13:00:31;;;;;;;70.80;33.33;;;1.70;99.90;;;;;;5019156;28;20072;-83
2021/12/23 13:03:12;;;;;;;68.53;32.78;;;1.70;99.90;;;;;;5032111;28;20311;-83
2021/12/23 13:05:42;;;;;;;72.68;35.15;;;1.80;99.90;;;;;;5017713;28;20459;-83
2021/12/23 13:08:30;;;;;;;70.82;33.03;;;1.90;99.90;;;;;;5026500;28;20033;-83
2021/12/23 13:11:16;;;;;;;66.50;31.45;;;1.80;99.90;;;;;;5035543;28;20029;-83
2021/12/23 13:13:45;;;;;;;64.55;32.00;;;1.70;99.90;;;;;;5006901;28;20106;-83
2021/12/23 13:16:20;;;;;;;70.28;33.10;;;1.80;99.90;;;;;;5001843;28;20053;-83
2021/12/23 13:18:47;;;;;;;72.55;32.63;;;1.80;99.90;;;;;;5003023;28;20034;-83
2021/12/23 13:21:21;;;;;;;69.07;32.65;;;1.80;99.90;;;;;;5012788;28;20076;-83
2021/12/23 13:23:47;;;;;;;68.50;34.40;;;1.80;99.90;;;;;;5000998;28;20048;-83
2021/12/23 13:26:17;;;;;;;68.65;34.50;;;1.80;99.90;;;;;;5019132;28;20046;-83
2021/12/23 13:28:48;;;;;;;68.25;32.35;;;1.80;99.90;;;;;;4997966;28;20107;-83
2021/12/23 13:31:37;;;;;;;63.83;31.10;;;1.70;99.90;;;;;;5017549;28;20081;-83
2021/12/23 13:34:22;;;;;;;63.28;32.25;;;1.70;99.90;;;;;;5001323;28;20045;-83
2021/12/23 13:36:53;;;;;;;70.28;32.38;;;1.70;99.90;;;;;;5008485;28;20112;-83
2021/12/23 13:39:41;;;;;;;65.22;31.48;;;1.70;99.90;;;;;;5018028;28;20527;-83
2021/12/23 13:42:09;;;;;;;67.00;32.00;;;1.80;99.90;;;;;;5016771;28;20033;-83
2021/12/23 13:44:47;;;;;;;59.75;30.98;;;1.70;99.90;;;;;;5001711;28;20037;-83
2021/12/23 13:47:15;;;;;;;58.00;30.73;;;1.70;99.90;;;;;;5002814;28;20358;-83
2021/12/23 13:49:49;;;;;;;64.43;32.90;;;1.80;99.90;;;;;;5003222;28;20307;-83
2021/12/23 13:52:40;;;;;;;68.57;32.22;;;1.80;99.90;;;;;;5028549;28;20060;-83
2021/12/23 13:55:08;;;;;;;63.63;32.05;;;1.70;99.90;;;;;;5017422;28;20711;-83